createdAt,value
2023-03-11T00:00:32.167Z,0.38
2023-03-11T00:03:01.135Z,0.40
2023-03-11T00:05:30.279Z,0.30
2023-03-11T00:07:57.203Z,0.45
2023-03-11T00:10:44.792Z,0.40
2023-03-11T00:13:13.942Z,0.40
2023-03-11T00:15:44.746Z,0.40
2023-03-11T00:18:11.575Z,0.30
2023-03-11T00:20:41.827Z,0.35
2023-03-11T00:23:09.719Z,0.60
2023-03-11T00:25:38.281Z,0.50
2023-03-11T00:28:07.400Z,0.30
2023-03-11T00:30:34.558Z,0.47
2023-03-11T00:33:01.532Z,0.30
2023-03-11T00:35:31.452Z,0.30
2023-03-11T00:38:01.026Z,0.40
2023-03-11T00:40:30.478Z,0.50
2023-03-11T00:42:57.982Z,0.40
2023-03-11T00:45:25.768Z,0.60
2023-03-11T00:47:53.391Z,0.20
2023-03-11T00:50:23.748Z,0.40
2023-03-11T00:52:51.098Z,0.30
2023-03-11T00:55:22.261Z,0.50
2023-03-11T00:57:52.208Z,0.40
2023-03-11T01:00:20.799Z,0.43
2023-03-11T01:02:47.627Z,0.30
2023-03-11T01:05:15.215Z,0.60
2023-03-11T01:07:42.089Z,0.30
2023-03-11T01:10:10.061Z,0.40
2023-03-11T01:12:37.063Z,0.40
2023-03-11T01:15:04.887Z,0.40
2023-03-11T01:17:31.655Z,0.35
2023-03-11T01:19:58.390Z,0.30
2023-03-11T01:22:25.182Z,0.32
2023-03-11T01:24:51.972Z,0.47
2023-03-11T01:27:18.717Z,0.30
2023-03-11T01:29:45.497Z,0.20
2023-03-11T01:32:12.516Z,0.35
2023-03-11T01:34:39.334Z,0.40
2023-03-11T01:37:06.158Z,0.30
2023-03-11T01:39:32.901Z,0.30
2023-03-11T01:41:59.712Z,0.25
2023-03-11T01:44:27.014Z,0.30
2023-03-11T01:46:53.893Z,0.30
2023-03-11T01:49:22.279Z,0.30
2023-03-11T01:51:53.699Z,0.47
2023-03-11T01:54:25.609Z,0.20
2023-03-11T01:56:53.104Z,0.30
2023-03-11T01:59:24.055Z,0.40
2023-03-11T02:02:10.622Z,0.40
2023-03-11T02:04:38.878Z,0.40
2023-03-11T02:07:08.372Z,0.30
2023-03-11T02:09:35.493Z,0.38
2023-03-11T02:12:03.908Z,0.20
2023-03-11T02:14:31.571Z,0.30
2023-03-11T02:17:01.101Z,0.30
2023-03-11T02:19:55.078Z,0.30
2023-03-11T02:22:22.088Z,0.30
2023-03-11T02:24:51.595Z,0.32
2023-03-11T02:27:19.971Z,0.35
2023-03-11T02:29:49.728Z,0.17
2023-03-11T02:32:18.136Z,0.28
2023-03-11T02:34:45.884Z,0.30
2023-03-11T02:37:15.423Z,0.35
2023-03-11T02:39:45.173Z,0.30
2023-03-11T02:42:23.886Z,0.30
2023-03-11T02:44:59.167Z,0.20
2023-03-11T02:47:26.542Z,0.30
2023-03-11T02:49:56.096Z,0.30
2023-03-11T02:52:26.092Z,0.20
2023-03-11T02:54:55.546Z,0.25
2023-03-11T02:57:22.387Z,0.13
2023-03-11T02:59:49.904Z,0.22
2023-03-11T03:02:16.707Z,0.30
2023-03-11T03:04:43.688Z,0.35
2023-03-11T03:07:10.485Z,0.10
2023-03-11T03:09:37.389Z,0.20
2023-03-11T03:12:05.260Z,0.20
2023-03-11T03:14:32.454Z,0.20
2023-03-11T03:16:59.571Z,0.10
2023-03-11T03:19:26.426Z,0.20
2023-03-11T03:21:53.212Z,0.20
2023-03-11T03:24:20.020Z,0.10
2023-03-11T03:26:46.796Z,0.10
2023-03-11T03:29:13.588Z,0.20
2023-03-11T03:31:40.441Z,0.20
2023-03-11T03:34:07.293Z,0.20
2023-03-11T03:36:34.116Z,0.30
2023-03-11T03:39:01.550Z,0.20
2023-03-11T03:41:28.609Z,0.10
2023-03-11T03:43:55.630Z,0.10
2023-03-11T03:46:23.061Z,0.10
2023-03-11T03:48:50.357Z,0.10
2023-03-11T03:51:17.792Z,0.13
2023-03-11T03:53:46.477Z,0.20
2023-03-11T03:56:15.834Z,0.15
2023-03-11T03:58:43.112Z,0.20
2023-03-11T04:01:11.388Z,0.20
2023-03-11T04:03:39.476Z,0.20
2023-03-11T04:06:07.535Z,0.30
2023-03-11T04:08:34.432Z,0.17
2023-03-11T04:11:01.212Z,0.22
2023-03-11T04:13:28.208Z,0.30
2023-03-11T04:15:55.011Z,0.20
2023-03-11T04:18:22.846Z,0.25
2023-03-11T04:20:49.707Z,0.20
2023-03-11T04:23:16.828Z,0.20
2023-03-11T04:25:43.614Z,0.30
2023-03-11T04:28:10.416Z,0.20
2023-03-11T04:30:39.275Z,0.15
2023-03-11T04:33:06.093Z,0.20
2023-03-11T04:35:32.904Z,0.30
2023-03-11T04:38:00.627Z,0.30
2023-03-11T04:40:28.339Z,0.25
2023-03-11T04:42:55.245Z,0.20
2023-03-11T04:45:22.062Z,0.30
2023-03-11T04:47:50.232Z,0.40
2023-03-11T04:50:18.068Z,0.30
2023-03-11T04:52:45.751Z,0.30
2023-03-11T04:55:13.867Z,0.30
2023-03-11T04:57:41.621Z,0.20
2023-03-11T05:00:11.842Z,0.28
2023-03-11T05:02:40.059Z,0.20
2023-03-11T05:05:09.180Z,0.30
2023-03-11T05:07:36.976Z,0.20
2023-03-11T05:10:05.501Z,0.20
2023-03-11T05:12:33.089Z,0.20
2023-03-11T05:14:59.871Z,0.28
2023-03-11T05:17:26.636Z,0.25
2023-03-11T05:19:57.500Z,0.20
2023-03-11T05:22:24.497Z,0.30
2023-03-11T05:24:51.258Z,0.28
2023-03-11T05:27:18.124Z,0.28
2023-03-11T05:29:45.243Z,0.43
2023-03-11T05:32:13.048Z,0.30
2023-03-11T05:34:39.962Z,0.30
2023-03-11T05:37:07.596Z,0.30
2023-03-11T05:39:34.968Z,0.30
2023-03-11T05:42:01.860Z,0.32
2023-03-11T05:44:28.884Z,0.30
2023-03-11T05:46:55.769Z,0.50
2023-03-11T05:49:22.721Z,0.30
2023-03-11T05:51:50.809Z,0.20
2023-03-11T05:54:17.663Z,0.40
2023-03-11T05:56:45.684Z,0.25
2023-03-11T05:59:16.364Z,0.28
2023-03-11T06:01:44.281Z,0.20
2023-03-11T06:04:11.422Z,0.40
2023-03-11T06:06:41.576Z,0.35
2023-03-11T06:09:13.249Z,0.50
2023-03-11T06:11:40.186Z,0.30
2023-03-11T06:14:07.010Z,0.47
2023-03-11T06:16:33.790Z,0.40
2023-03-11T06:19:01.694Z,0.30
2023-03-11T06:21:28.637Z,0.30
2023-03-11T06:23:55.674Z,0.40
2023-03-11T06:26:24.313Z,0.30
2023-03-11T06:28:52.159Z,0.30
2023-03-11T06:31:25.517Z,0.50
2023-03-11T06:33:53.622Z,0.55
2023-03-11T06:36:20.677Z,0.30
2023-03-11T06:38:49.296Z,0.40
2023-03-11T06:41:16.675Z,0.65
2023-03-11T06:43:43.881Z,0.40
2023-03-11T06:46:17.589Z,0.30
2023-03-11T06:48:45.867Z,0.20
2023-03-11T06:51:12.914Z,0.52
2023-03-11T06:53:39.887Z,0.30
2023-03-11T06:56:12.443Z,0.38
2023-03-11T06:58:41.651Z,0.30
2023-03-11T07:01:12.277Z,0.50
2023-03-11T07:03:39.541Z,0.30
2023-03-11T07:06:10.593Z,0.30
2023-03-11T07:08:37.383Z,0.50
2023-03-11T07:11:14.741Z,0.43
2023-03-11T07:13:41.683Z,0.28
2023-03-11T07:16:20.698Z,0.38
2023-03-11T07:18:49.349Z,0.43
2023-03-11T07:21:18.934Z,0.70
2023-03-11T07:23:46.261Z,0.50
2023-03-11T07:26:14.604Z,0.60
2023-03-11T07:28:41.762Z,0.38
2023-03-11T07:31:15.990Z,0.35
2023-03-11T07:33:43.409Z,0.40
2023-03-11T07:36:22.524Z,0.40
2023-03-11T07:38:54.562Z,0.40
2023-03-11T07:41:21.887Z,0.30
2023-03-11T07:43:53.979Z,0.38
2023-03-11T07:46:22.633Z,0.43
2023-03-11T07:48:51.100Z,0.70
2023-03-11T07:51:26.749Z,0.52
2023-03-11T07:53:55.363Z,0.40
2023-03-11T07:56:23.944Z,0.40
2023-03-11T07:58:51.571Z,0.40
2023-03-11T08:01:21.274Z,0.40
2023-03-11T08:03:51.068Z,0.82
2023-03-11T08:06:24.704Z,0.70
2023-03-11T08:08:52.405Z,0.60
2023-03-11T08:11:20.881Z,1.00
2023-03-11T08:13:48.631Z,2.05
2023-03-11T08:16:18.541Z,1.70
2023-03-11T08:18:47.225Z,1.10
2023-03-11T08:21:17.583Z,0.63
2023-03-11T08:23:47.483Z,0.70
2023-03-11T08:26:17.233Z,0.65
2023-03-11T08:28:44.573Z,0.70
2023-03-11T08:31:16.525Z,0.52
2023-03-11T08:33:46.068Z,0.60
2023-03-11T08:36:13.202Z,0.50
2023-03-11T08:38:40.085Z,0.47
2023-03-11T08:41:06.891Z,0.32
2023-03-11T08:43:33.783Z,0.40
2023-03-11T08:46:02.294Z,0.35
2023-03-11T08:48:29.833Z,0.52
2023-03-11T08:50:56.620Z,0.47
2023-03-11T08:53:23.761Z,0.40
2023-03-11T08:55:51.477Z,0.40
2023-03-11T08:58:19.464Z,0.40
2023-03-11T09:00:47.073Z,0.50
2023-03-11T09:03:14.167Z,0.30
2023-03-11T09:05:41.083Z,0.50
2023-03-11T09:08:08.286Z,0.68
2023-03-11T09:10:35.068Z,0.57
2023-03-11T09:13:01.968Z,0.52
2023-03-11T09:15:28.877Z,0.50
2023-03-11T09:17:56.142Z,0.50
2023-03-11T09:20:23.187Z,0.40
2023-03-11T09:22:49.975Z,0.40
2023-03-11T09:25:17.073Z,0.90
2023-03-11T09:27:43.923Z,0.50
2023-03-11T09:30:11.474Z,0.50
2023-03-11T09:32:38.288Z,0.40
2023-03-11T09:35:05.657Z,0.45
2023-03-11T09:37:32.588Z,0.50
2023-03-11T09:39:59.360Z,0.43
2023-03-11T09:42:38.073Z,0.50
2023-03-11T09:45:18.565Z,0.68
2023-03-11T09:47:59.646Z,0.40
2023-03-11T09:50:35.987Z,0.38
2023-03-11T09:55:56.277Z,0.40
2023-03-11T09:58:47.876Z,0.40
2023-03-11T10:01:27.773Z,0.30
2023-03-11T10:04:24.092Z,0.40
2023-03-11T10:06:51.676Z,0.50
2023-03-11T10:09:39.174Z,0.40
2023-03-11T10:12:18.474Z,0.50
2023-03-11T10:14:51.032Z,0.55
2023-03-11T10:17:29.957Z,0.50
2023-03-11T10:20:05.947Z,0.52
2023-03-11T10:23:02.783Z,0.47
2023-03-11T10:26:11.430Z,0.40
2023-03-11T10:28:51.691Z,0.52
2023-03-11T10:31:34.707Z,0.50
2023-03-11T10:34:03.599Z,0.40
2023-03-11T10:36:39.546Z,0.38
2023-03-11T10:39:10.611Z,0.40
2023-03-11T10:41:52.930Z,0.40
2023-03-11T10:44:33.857Z,0.70
2023-03-11T10:47:01.815Z,0.30
2023-03-11T10:49:29.477Z,0.68
2023-03-11T10:51:57.928Z,0.45
2023-03-11T10:54:46.405Z,0.35
2023-03-11T10:57:29.031Z,0.43
2023-03-11T10:59:57.795Z,0.22
2023-03-11T11:02:42.653Z,0.38
2023-03-11T11:05:22.929Z,0.27
2023-03-11T11:07:53.180Z,0.30
2023-03-11T11:10:20.162Z,0.40
2023-03-11T11:12:59.191Z,0.40
2023-03-11T11:15:37.879Z,0.50
2023-03-11T11:18:15.415Z,0.50
2023-03-11T11:20:55.964Z,0.43
2023-03-11T11:23:33.691Z,0.35
2023-03-11T11:26:07.109Z,0.40
2023-03-11T11:28:34.633Z,0.60
2023-03-11T11:31:06.712Z,0.50
2023-03-11T11:33:40.623Z,0.30
2023-03-11T11:36:14.706Z,0.40
2023-03-11T11:38:41.861Z,0.30
2023-03-11T11:41:17.584Z,0.38
2023-03-11T11:44:02.879Z,0.47
2023-03-11T11:46:42.586Z,0.38
2023-03-11T11:49:27.362Z,0.40
2023-03-11T11:52:23.437Z,0.30
2023-03-11T11:55:17.005Z,0.40
2023-03-11T11:57:43.743Z,0.30
2023-03-11T12:00:29.843Z,0.47
2023-03-11T12:03:25.548Z,0.28
2023-03-11T12:05:59.204Z,0.50
2023-03-11T12:08:40.696Z,0.40
2023-03-11T12:11:13.429Z,0.50
2023-03-11T12:14:03.120Z,0.98
2023-03-11T12:16:38.401Z,0.73
2023-03-11T12:19:19.384Z,0.60
2023-03-11T12:22:17.456Z,0.52
2023-03-11T12:24:58.741Z,0.60
2023-03-11T12:27:31.307Z,0.40
2023-03-11T12:30:29.613Z,0.60
2023-03-11T12:32:59.249Z,0.40
2023-03-11T12:35:27.665Z,0.32
2023-03-11T12:38:04.506Z,0.38
2023-03-11T12:41:02.222Z,0.30
2023-03-11T12:43:33.724Z,0.38
2023-03-11T12:46:08.408Z,0.50
2023-03-11T12:48:45.996Z,0.50
2023-03-11T12:51:27.845Z,0.55
2023-03-11T12:53:55.661Z,0.60
2023-03-11T12:56:42.381Z,0.60
2023-03-11T12:59:47.984Z,0.60
2023-03-11T13:02:17.487Z,0.70
2023-03-11T13:04:47.264Z,0.40
2023-03-11T13:07:22.882Z,0.50
2023-03-11T13:10:07.847Z,0.90
2023-03-11T13:12:46.995Z,0.57
2023-03-11T13:15:30.893Z,0.80
2023-03-11T13:18:18.954Z,0.70
2023-03-11T13:20:49.272Z,0.60
2023-03-11T13:23:40.341Z,0.52
2023-03-11T13:26:25.535Z,0.70
2023-03-11T13:29:06.557Z,0.70
2023-03-11T13:31:48.254Z,0.80
2023-03-11T13:34:20.681Z,0.57
2023-03-11T13:37:26.756Z,0.40
2023-03-11T13:39:56.634Z,0.80
2023-03-11T13:42:35.584Z,0.60
2023-03-11T13:45:04.966Z,0.80
2023-03-11T13:47:33.712Z,0.60
2023-03-11T13:50:09.327Z,0.93
2023-03-11T13:52:42.710Z,0.60
2023-03-11T13:55:21.256Z,1.00
2023-03-11T13:57:56.787Z,0.57
2023-03-11T14:00:28.471Z,0.80
2023-03-11T14:03:02.506Z,0.60
2023-03-11T14:05:35.076Z,0.70
2023-03-11T14:08:38.196Z,1.00
2023-03-11T14:11:17.137Z,0.60
2023-03-11T14:13:49.866Z,0.60
2023-03-11T14:16:25.143Z,0.43
2023-03-11T14:19:17.525Z,0.57
2023-03-11T14:21:45.951Z,0.60
2023-03-11T14:24:31.734Z,0.57
2023-03-11T14:27:01.760Z,0.60
2023-03-11T14:29:38.975Z,0.50
2023-03-11T14:32:24.862Z,0.60
2023-03-11T14:37:38.549Z,0.70
2023-03-11T14:40:31.242Z,0.63
2023-03-11T14:43:04.957Z,0.68
2023-03-11T14:45:37.472Z,0.57
2023-03-11T14:48:27.668Z,0.60
2023-03-11T14:50:58.152Z,0.80
2023-03-11T14:53:33.579Z,0.52
2023-03-11T14:56:06.241Z,0.60
2023-03-11T14:58:43.859Z,0.60
2023-03-11T15:01:14.545Z,0.80
2023-03-11T15:03:56.174Z,1.13
2023-03-11T15:06:28.128Z,0.63
2023-03-11T15:09:08.574Z,0.50
2023-03-11T15:11:59.313Z,0.55
2023-03-11T15:14:27.688Z,0.60
2023-03-11T15:17:33.798Z,0.55
2023-03-11T15:20:02.450Z,0.80
2023-03-11T15:22:39.281Z,0.65
2023-03-11T15:25:17.469Z,0.70
2023-03-11T15:27:44.565Z,0.50
2023-03-11T15:30:19.527Z,0.60
2023-03-11T15:32:47.265Z,0.65
2023-03-11T15:35:19.482Z,0.70
2023-03-11T15:37:48.339Z,0.60
2023-03-11T15:40:35.263Z,0.77
2023-03-11T15:43:15.301Z,0.77
2023-03-11T15:45:45.430Z,0.55
2023-03-11T15:48:13.499Z,0.65
2023-03-11T15:50:53.293Z,0.50
2023-03-11T15:53:22.418Z,0.70
2023-03-11T15:55:49.596Z,0.60
2023-03-11T15:58:17.952Z,0.70
2023-03-11T16:00:48.917Z,0.70
2023-03-11T16:03:15.997Z,0.65
2023-03-11T16:05:43.304Z,1.00
2023-03-11T16:08:10.194Z,0.50
2023-03-11T16:10:37.568Z,0.50
2023-03-11T16:13:05.162Z,0.77
2023-03-11T16:15:35.176Z,0.70
2023-03-11T16:18:05.374Z,0.60
2023-03-11T16:20:44.674Z,0.70
2023-03-11T16:23:23.939Z,0.77
2023-03-11T16:25:53.280Z,0.68
2023-03-11T16:28:20.136Z,0.90
2023-03-11T16:30:50.012Z,1.00
2023-03-11T16:33:16.973Z,0.60
2023-03-11T16:35:43.862Z,0.70
2023-03-11T16:38:10.923Z,0.70
2023-03-11T16:40:37.717Z,0.88
2023-03-11T16:43:09.836Z,0.65
2023-03-11T16:45:36.986Z,1.30
2023-03-11T16:48:05.461Z,0.82
2023-03-11T16:50:34.240Z,0.57
2023-03-11T16:53:01.808Z,0.85
2023-03-11T16:55:29.106Z,1.02
2023-03-11T16:57:57.412Z,1.42
2023-03-11T17:00:24.989Z,1.30
2023-03-11T17:02:52.058Z,1.27
2023-03-11T17:05:19.338Z,1.15
2023-03-11T17:07:46.927Z,1.00
2023-03-11T17:10:14.011Z,0.82
2023-03-11T17:12:40.790Z,0.90
2023-03-11T17:15:08.473Z,0.98
2023-03-11T17:17:35.976Z,0.80
2023-03-11T17:20:03.649Z,1.20
2023-03-11T17:22:32.477Z,1.27
2023-03-11T17:24:59.500Z,2.20
2023-03-11T17:27:31.996Z,2.40
2023-03-11T17:30:00.938Z,2.90
2023-03-11T17:32:28.745Z,3.90
2023-03-11T17:34:58.523Z,4.60
2023-03-11T17:37:25.643Z,6.13
2023-03-11T17:39:52.647Z,5.35
2023-03-11T17:42:19.432Z,5.07
2023-03-11T17:44:51.905Z,3.80
2023-03-11T17:47:19.898Z,3.30
2023-03-11T17:49:47.906Z,2.75
2023-03-11T17:52:14.708Z,4.50
2023-03-11T17:54:41.475Z,3.85
2023-03-11T17:57:08.377Z,3.70
2023-03-11T17:59:35.220Z,2.55
2023-03-11T18:02:02.299Z,2.08
2023-03-11T18:04:29.274Z,2.00
2023-03-11T18:06:56.669Z,1.30
2023-03-11T18:09:23.573Z,1.45
2023-03-11T18:11:50.390Z,1.30
2023-03-11T18:14:17.315Z,1.02
2023-03-11T18:16:44.201Z,1.00
2023-03-11T18:19:11.068Z,0.90
2023-03-11T18:21:37.820Z,1.25
2023-03-11T18:24:04.917Z,0.73
2023-03-11T18:26:32.032Z,0.90
2023-03-11T18:29:00.173Z,1.15
2023-03-11T18:31:28.584Z,1.25
2023-03-11T18:34:01.102Z,1.00
2023-03-11T18:36:30.665Z,1.23
2023-03-11T18:38:58.985Z,1.30
2023-03-11T18:41:27.223Z,1.00
2023-03-11T18:43:57.343Z,1.08
2023-03-11T18:46:26.046Z,0.90
2023-03-11T18:48:53.934Z,1.30
2023-03-11T18:51:20.724Z,1.30
2023-03-11T18:53:47.538Z,1.10
2023-03-11T18:56:16.148Z,1.23
2023-03-11T18:58:43.467Z,1.20
2023-03-11T19:01:15.945Z,1.20
2023-03-11T19:03:44.686Z,1.15
2023-03-11T19:06:13.166Z,1.00
2023-03-11T19:08:40.265Z,1.25
2023-03-11T19:11:08.865Z,1.45
2023-03-11T19:13:46.608Z,1.05
2023-03-11T19:16:16.254Z,0.95
2023-03-11T19:18:43.519Z,1.10
2023-03-11T19:21:13.320Z,1.10
2023-03-11T19:23:40.240Z,0.93
2023-03-11T19:26:07.664Z,1.30
2023-03-11T19:28:35.282Z,1.08
2023-03-11T19:31:04.388Z,1.20
2023-03-11T19:33:31.735Z,1.20
2023-03-11T19:36:01.078Z,1.95
2023-03-11T19:38:29.090Z,1.83
2023-03-11T19:41:14.374Z,1.83
2023-03-11T19:43:42.140Z,2.23
2023-03-11T19:46:12.540Z,1.60
2023-03-11T19:48:39.563Z,1.83
2023-03-11T19:51:06.395Z,1.20
2023-03-11T19:53:35.746Z,1.40
2023-03-11T19:56:04.710Z,1.20
2023-03-11T19:58:31.748Z,0.95
2023-03-11T20:00:59.552Z,1.00
2023-03-11T20:03:26.888Z,1.00
2023-03-11T20:05:56.530Z,0.98
2023-03-11T20:08:25.370Z,1.00
2023-03-11T20:10:53.396Z,1.20
2023-03-11T20:13:21.839Z,0.77
2023-03-11T20:15:49.561Z,1.10
2023-03-11T20:18:17.809Z,1.08
2023-03-11T20:20:45.540Z,1.10
2023-03-11T20:23:13.301Z,1.38
2023-03-11T20:25:41.637Z,0.95
2023-03-11T20:28:08.973Z,1.02
2023-03-11T20:30:38.135Z,1.15
2023-03-11T20:33:05.832Z,1.25
2023-03-11T20:35:41.040Z,1.40
2023-03-11T20:38:09.405Z,1.20
2023-03-11T20:40:36.757Z,1.27
2023-03-11T20:43:03.756Z,1.00
2023-03-11T20:45:30.614Z,1.30
2023-03-11T20:47:57.468Z,1.20
2023-03-11T20:50:24.624Z,1.13
2023-03-11T20:52:51.544Z,1.88
2023-03-11T20:55:18.807Z,1.10
2023-03-11T20:57:45.801Z,1.13
2023-03-11T21:00:13.862Z,0.98
2023-03-11T21:02:42.561Z,1.00
2023-03-11T21:05:11.512Z,1.13
2023-03-11T21:07:39.396Z,1.50
2023-03-11T21:10:09.338Z,1.67
2023-03-11T21:12:36.737Z,1.77
2023-03-11T21:15:05.034Z,1.77
2023-03-11T21:17:34.144Z,1.65
2023-03-11T21:20:00.998Z,1.30
2023-03-11T21:22:28.192Z,1.35
2023-03-11T21:24:55.835Z,1.48
2023-03-11T21:27:27.043Z,1.40
2023-03-11T21:29:58.138Z,1.17
2023-03-11T21:32:27.570Z,1.30
2023-03-11T21:35:02.193Z,1.40
2023-03-11T21:37:30.140Z,1.25
2023-03-11T21:39:57.236Z,1.20
2023-03-11T21:42:24.789Z,1.30
2023-03-11T21:44:51.864Z,1.50
2023-03-11T21:47:19.693Z,1.33
2023-03-11T21:49:46.688Z,1.30
2023-03-11T21:52:13.577Z,1.25
2023-03-11T21:54:41.892Z,1.20
2023-03-11T21:57:08.800Z,0.93
2023-03-11T21:59:36.003Z,1.17
2023-03-11T22:02:03.922Z,1.23
2023-03-11T22:04:32.227Z,1.23
2023-03-11T22:07:01.151Z,1.48
2023-03-11T22:09:28.966Z,1.25
2023-03-11T22:11:56.393Z,1.27
2023-03-11T22:14:24.683Z,1.55
2023-03-11T22:16:52.376Z,1.40
2023-03-11T22:19:19.544Z,1.60
2023-03-11T22:21:46.493Z,1.58
2023-03-11T22:24:14.006Z,1.65
2023-03-11T22:26:41.064Z,1.60
2023-03-11T22:29:09.014Z,1.70
2023-03-11T22:31:36.341Z,2.10
2023-03-11T22:34:03.390Z,2.10
2023-03-11T22:36:30.863Z,2.20
2023-03-11T22:38:57.817Z,2.40
2023-03-11T22:41:24.588Z,2.60
2023-03-11T22:43:51.495Z,2.33
2023-03-11T22:46:18.456Z,2.25
2023-03-11T22:48:45.276Z,2.53
2023-03-11T22:51:12.966Z,2.10
2023-03-11T22:53:40.313Z,2.10
2023-03-11T22:56:12.442Z,2.10
2023-03-11T22:58:40.948Z,1.98
2023-03-11T23:01:08.041Z,2.30
2023-03-11T23:03:35.669Z,2.15
2023-03-11T23:06:06.074Z,2.00
2023-03-11T23:08:33.588Z,1.98
2023-03-11T23:11:07.575Z,1.95
2023-03-11T23:13:39.128Z,2.03
2023-03-11T23:16:13.583Z,1.75
2023-03-11T23:18:42.079Z,1.85
2023-03-11T23:21:28.179Z,2.10
2023-03-11T23:23:56.550Z,2.38
2023-03-11T23:26:24.242Z,2.17
2023-03-11T23:28:53.522Z,2.40
2023-03-11T23:31:22.564Z,2.40
2023-03-11T23:33:49.826Z,2.47
2023-03-11T23:36:19.045Z,2.20
2023-03-11T23:38:46.834Z,2.40
2023-03-11T23:41:18.990Z,2.17
2023-03-11T23:43:46.547Z,2.03
2023-03-11T23:46:13.812Z,2.40
2023-03-11T23:48:41.059Z,2.35
2023-03-11T23:51:09.206Z,2.22
2023-03-11T23:53:36.914Z,2.05
2023-03-11T23:56:09.584Z,1.95
2023-03-11T23:58:36.349Z,1.80
